createdAt,value
2022-12-17T00:01:07.936Z,102280.78
2022-12-17T00:03:53.241Z,102280.06
2022-12-17T00:06:41.872Z,102277.66
2022-12-17T00:09:26.677Z,102282.25
2022-12-17T00:12:11.430Z,102285.75
2022-12-17T00:14:56.297Z,102292.47
2022-12-17T00:17:41.048Z,102287.34
2022-12-17T00:20:26.401Z,102296.09
2022-12-17T00:23:23.325Z,102298.78
2022-12-17T00:26:10.168Z,102300.66
2022-12-17T00:28:55.373Z,102300.78
2022-12-17T00:31:41.658Z,102300.84
2022-12-17T00:34:26.843Z,102296.81
2022-12-17T00:37:11.655Z,102322.16
2022-12-17T00:39:59.367Z,102321.59
2022-12-17T00:42:44.631Z,102309.97
2022-12-17T00:45:29.961Z,102314.88
2022-12-17T00:48:14.608Z,102307.88
2022-12-17T00:51:13.002Z,102312.22
2022-12-17T00:53:57.781Z,102310.56
2022-12-17T00:56:42.611Z,102311.84
2022-12-17T00:59:27.366Z,102319.16
2022-12-17T01:02:12.320Z,102326.31
2022-12-17T01:04:57.505Z,102329.56
2022-12-17T01:07:52.932Z,102334.03
2022-12-17T01:10:38.425Z,102328.75
2022-12-17T01:13:23.271Z,102330.94
2022-12-17T01:16:08.088Z,102324.91
2022-12-17T01:18:52.822Z,102331.06
2022-12-17T01:21:37.596Z,102329.25
2022-12-17T01:24:22.776Z,102326.03
2022-12-17T01:27:07.677Z,102331.44
2022-12-17T01:29:52.271Z,102329.53
2022-12-17T01:32:37.182Z,102336.72
2022-12-17T01:35:22.347Z,102329.56
2022-12-17T01:38:07.507Z,102331.50
2022-12-17T01:40:52.327Z,102329.63
2022-12-17T01:43:55.416Z,102347.84
2022-12-17T01:46:41.843Z,102349.28
2022-12-17T01:49:29.553Z,102343.09
2022-12-17T01:52:15.777Z,102354.63
2022-12-17T01:55:00.967Z,102349.53
2022-12-17T01:57:46.318Z,102350.69
2022-12-17T02:00:34.530Z,102357.53
2022-12-17T02:03:19.398Z,102352.66
2022-12-17T02:06:22.624Z,102355.88
2022-12-17T02:09:10.337Z,102350.78
2022-12-17T02:12:10.348Z,102354.59
2022-12-17T02:15:07.195Z,102358.34
2022-12-17T02:18:00.681Z,102362.00
2022-12-17T02:20:48.499Z,102358.34
2022-12-17T02:23:59.769Z,102365.59
2022-12-17T02:27:06.564Z,102369.03
2022-12-17T02:29:59.408Z,102368.03
2022-12-17T02:32:45.860Z,102376.38
2022-12-17T02:35:41.371Z,102365.09
2022-12-17T02:38:56.704Z,102366.59
2022-12-17T02:41:47.666Z,102363.53
2022-12-17T02:44:35.373Z,102385.44
2022-12-17T02:47:24.575Z,102374.00
2022-12-17T02:50:10.031Z,102376.97
2022-12-17T02:52:59.330Z,102378.59
2022-12-17T02:55:44.132Z,102381.03
2022-12-17T02:58:28.926Z,102379.59
2022-12-17T03:01:13.635Z,102379.84
2022-12-17T03:03:58.880Z,102377.34
2022-12-17T03:06:43.784Z,102377.66
2022-12-17T03:09:28.485Z,102380.63
2022-12-17T03:12:24.402Z,102391.94
2022-12-17T03:15:09.200Z,102387.81
2022-12-17T03:17:54.572Z,102381.31
2022-12-17T03:20:39.470Z,102384.75
2022-12-17T03:23:27.376Z,102389.59
2022-12-17T03:26:12.620Z,102394.06
2022-12-17T03:28:57.385Z,102392.19
2022-12-17T03:31:42.145Z,102397.63
2022-12-17T03:34:27.072Z,102398.38
2022-12-17T03:37:11.741Z,102402.16
2022-12-17T03:39:56.720Z,102400.22
2022-12-17T03:42:41.479Z,102402.34
2022-12-17T03:45:26.652Z,102401.28
2022-12-17T03:48:32.755Z,102401.59
2022-12-17T03:51:18.613Z,102389.78
2022-12-17T03:54:04.320Z,102397.78
2022-12-17T03:56:50.207Z,102404.28
2022-12-17T03:59:35.379Z,102391.81
2022-12-17T04:02:21.130Z,102395.88
2022-12-17T04:05:06.315Z,102402.28
2022-12-17T04:07:51.685Z,102391.88
2022-12-17T04:10:47.774Z,102399.66
2022-12-17T04:13:37.322Z,102405.09
2022-12-17T04:16:25.505Z,102404.28
2022-12-17T04:19:10.608Z,102408.19
2022-12-17T04:21:55.707Z,102413.28
2022-12-17T04:24:40.631Z,102421.31
2022-12-17T04:27:25.510Z,102421.00
2022-12-17T04:30:10.325Z,102426.09
2022-12-17T04:32:55.304Z,102423.84
2022-12-17T04:35:40.297Z,102426.75
2022-12-17T04:38:25.134Z,102440.59
2022-12-17T04:41:09.967Z,102437.84
2022-12-17T04:43:59.594Z,102436.56
2022-12-17T04:46:50.753Z,102452.50
2022-12-17T04:49:35.974Z,102453.81
2022-12-17T04:52:21.329Z,102456.16
2022-12-17T04:55:06.223Z,102459.75
2022-12-17T04:57:52.039Z,102451.47
2022-12-17T05:00:37.390Z,102450.91
2022-12-17T05:03:34.793Z,102456.56
2022-12-17T05:06:20.160Z,102456.00
2022-12-17T05:09:05.509Z,102459.56
2022-12-17T05:11:50.628Z,102464.34
2022-12-17T05:14:36.448Z,102469.19
2022-12-17T05:17:21.300Z,102460.38
2022-12-17T05:20:06.408Z,102465.81
2022-12-17T05:22:51.212Z,102456.47
2022-12-17T05:25:40.500Z,102462.38
2022-12-17T05:28:25.749Z,102454.38
2022-12-17T05:31:12.136Z,102456.56
2022-12-17T05:34:03.720Z,102457.63
2022-12-17T05:36:48.426Z,102472.06
2022-12-17T05:39:33.263Z,102459.41
2022-12-17T05:42:18.075Z,102460.38
2022-12-17T05:45:02.800Z,102460.22
2022-12-17T05:47:48.212Z,102460.22
2022-12-17T05:50:33.646Z,102465.56
2022-12-17T05:53:23.491Z,102470.41
2022-12-17T05:56:12.072Z,102471.81
2022-12-17T05:58:58.016Z,102464.19
2022-12-17T06:01:43.272Z,102470.59
2022-12-17T06:04:28.975Z,102473.41
2022-12-17T06:07:13.918Z,102473.16
2022-12-17T06:09:58.712Z,102474.38
2022-12-17T06:12:43.557Z,102483.97
2022-12-17T06:15:29.004Z,102487.44
2022-12-17T06:18:17.154Z,102478.19
2022-12-17T06:21:02.527Z,102490.78
2022-12-17T06:23:47.264Z,102488.47
2022-12-17T06:26:32.140Z,102486.38
2022-12-17T06:29:16.850Z,102480.38
2022-12-17T06:32:01.680Z,102477.00
2022-12-17T06:34:46.497Z,102480.13
2022-12-17T06:37:31.354Z,102481.19
2022-12-17T06:40:16.036Z,102480.31
2022-12-17T06:43:11.056Z,102480.31
2022-12-17T06:46:12.915Z,102474.63
2022-12-17T06:48:58.284Z,102492.09
2022-12-17T06:51:43.652Z,102492.19
2022-12-17T06:54:28.516Z,102490.66
2022-12-17T06:57:13.418Z,102486.94
2022-12-17T06:59:58.457Z,102481.97
2022-12-17T07:02:43.736Z,102492.75
2022-12-17T07:05:28.732Z,102496.25
2022-12-17T07:08:18.680Z,102505.47
2022-12-17T07:11:04.059Z,102511.97
2022-12-17T07:13:48.704Z,102516.41
2022-12-17T07:16:33.727Z,102526.03
2022-12-17T07:19:22.511Z,102535.72
2022-12-17T07:22:10.436Z,102527.31
2022-12-17T07:24:55.323Z,102536.47
2022-12-17T07:27:40.119Z,102536.72
2022-12-17T07:30:25.455Z,102542.16
2022-12-17T07:33:21.427Z,102547.41
2022-12-17T07:36:06.461Z,102547.41
2022-12-17T07:38:51.853Z,102541.94
2022-12-17T07:41:37.172Z,102548.47
2022-12-17T07:44:22.296Z,102563.75
2022-12-17T07:47:07.223Z,102565.97
2022-12-17T07:49:52.104Z,102568.97
2022-12-17T07:52:36.760Z,102566.84
2022-12-17T07:55:22.175Z,102568.66
2022-12-17T07:58:15.807Z,102575.13
2022-12-17T08:01:00.704Z,102578.59
2022-12-17T08:03:45.747Z,102584.19
2022-12-17T08:06:30.978Z,102583.69
2022-12-17T08:09:15.776Z,102580.47
2022-12-17T08:12:00.614Z,102592.53
2022-12-17T08:14:45.385Z,102579.28
2022-12-17T08:17:40.728Z,102589.22
2022-12-17T08:20:26.773Z,102588.53
2022-12-17T08:23:11.936Z,102597.59
2022-12-17T08:25:56.716Z,102602.72
2022-12-17T08:28:50.637Z,102602.81
2022-12-17T08:31:36.639Z,102610.00
2022-12-17T08:34:22.010Z,102621.75
2022-12-17T08:37:07.369Z,102619.78
2022-12-17T08:39:52.239Z,102625.66
2022-12-17T08:42:37.091Z,102623.56
2022-12-17T08:45:22.264Z,102624.63
2022-12-17T08:48:07.063Z,102621.53
2022-12-17T08:50:51.891Z,102618.38
2022-12-17T08:53:37.128Z,102627.78
2022-12-17T08:56:22.501Z,102617.56
2022-12-17T08:59:07.401Z,102630.88
2022-12-17T09:01:52.595Z,102632.88
2022-12-17T09:04:37.920Z,102635.19
2022-12-17T09:07:23.089Z,102634.94
2022-12-17T09:10:07.976Z,102645.63
2022-12-17T09:12:52.944Z,102643.16
2022-12-17T09:15:37.896Z,102648.75
2022-12-17T09:18:43.072Z,102647.69
2022-12-17T09:21:27.874Z,102651.66
2022-12-17T09:24:13.229Z,102660.34
2022-12-17T09:26:58.217Z,102654.09
2022-12-17T09:29:43.103Z,102660.81
2022-12-17T09:32:28.003Z,102660.94
2022-12-17T09:35:12.729Z,102651.50
2022-12-17T09:37:57.584Z,102651.94
2022-12-17T09:40:43.412Z,102666.03
2022-12-17T09:43:46.541Z,102660.72
2022-12-17T09:46:37.478Z,102658.03
2022-12-17T09:49:33.406Z,102661.59
2022-12-17T09:52:18.385Z,102671.22
2022-12-17T09:55:07.417Z,102677.31
2022-12-17T09:57:55.217Z,102674.81
2022-12-17T10:01:01.290Z,102670.91
2022-12-17T10:03:48.690Z,102673.94
2022-12-17T10:06:40.749Z,102679.78
2022-12-17T10:09:32.594Z,102682.09
2022-12-17T10:12:38.718Z,102678.63
2022-12-17T10:15:25.299Z,102686.69
2022-12-17T10:18:10.967Z,102669.72
2022-12-17T10:21:10.704Z,102683.41
2022-12-17T10:23:55.592Z,102677.72
2022-12-17T10:26:43.861Z,102685.06
2022-12-17T10:29:35.192Z,102681.94
2022-12-17T10:32:35.256Z,102676.00
2022-12-17T10:35:35.141Z,102674.44
2022-12-17T10:38:28.441Z,102665.34
2022-12-17T10:41:13.585Z,102663.88
2022-12-17T10:44:00.033Z,102665.47
2022-12-17T10:46:52.278Z,102664.69
2022-12-17T10:49:38.890Z,102669.34
2022-12-17T10:53:04.238Z,102658.78
2022-12-17T10:55:51.775Z,102664.69
2022-12-17T10:58:38.616Z,102668.28
2022-12-17T11:01:30.065Z,102669.22
2022-12-17T11:04:16.957Z,102678.72
2022-12-17T11:07:05.679Z,102677.09
2022-12-17T11:10:09.145Z,102688.13
2022-12-17T11:13:01.007Z,102677.81
2022-12-17T11:16:07.807Z,102677.44
2022-12-17T11:19:07.864Z,102678.47
2022-12-17T11:22:05.909Z,102682.16
2022-12-17T11:24:58.341Z,102682.72
2022-12-17T11:27:50.339Z,102688.56
2022-12-17T11:30:36.160Z,102687.88
2022-12-17T11:33:36.770Z,102683.81
2022-12-17T11:36:38.236Z,102683.78
2022-12-17T11:39:29.579Z,102683.91
2022-12-17T11:42:26.569Z,102681.03
2022-12-17T11:45:14.543Z,102685.88
2022-12-17T11:48:19.345Z,102681.34
2022-12-17T11:51:08.144Z,102695.41
2022-12-17T11:54:28.519Z,102690.03
2022-12-17T11:57:32.663Z,102684.03
2022-12-17T12:00:24.620Z,102676.88
2022-12-17T12:03:20.732Z,102671.75
2022-12-17T12:06:11.644Z,102679.78
2022-12-17T12:09:23.515Z,102689.78
2022-12-17T12:12:17.704Z,102686.88
2022-12-17T12:15:24.448Z,102683.03
2022-12-17T12:18:21.454Z,102686.97
2022-12-17T12:21:15.659Z,102684.69
2022-12-17T12:24:23.530Z,102685.34
2022-12-17T12:27:29.404Z,102686.59
2022-12-17T12:30:31.006Z,102689.00
2022-12-17T12:33:21.976Z,102673.22
2022-12-17T12:36:07.018Z,102680.19
2022-12-17T12:39:00.785Z,102683.09
2022-12-17T12:41:56.722Z,102670.66
2022-12-17T12:45:03.758Z,102681.28
2022-12-17T12:48:02.368Z,102679.81
2022-12-17T12:51:12.559Z,102667.84
2022-12-17T12:53:57.440Z,102672.38
2022-12-17T12:56:54.143Z,102675.94
2022-12-17T12:59:48.164Z,102675.38
2022-12-17T13:02:45.161Z,102675.63
2022-12-17T13:05:34.154Z,102675.94
2022-12-17T13:08:20.025Z,102673.75
2022-12-17T13:10:47.388Z,102677.25
2022-12-17T13:13:34.291Z,102673.88
2022-12-17T13:16:16.401Z,102671.22
2022-12-17T13:18:42.922Z,102671.28
2022-12-17T13:21:15.091Z,102676.00
2022-12-17T13:23:42.001Z,102671.22
2022-12-17T13:26:22.552Z,102662.72
2022-12-17T13:28:55.118Z,102665.41
2022-12-17T13:31:26.721Z,102657.38
2022-12-17T13:34:01.967Z,102653.88
2022-12-17T13:36:59.415Z,102662.63
2022-12-17T13:39:47.697Z,102657.78
2022-12-17T13:42:18.834Z,102659.94
2022-12-17T13:44:46.816Z,102655.47
2022-12-17T13:47:26.551Z,102659.53
2022-12-17T13:50:31.547Z,102655.03
2022-12-17T13:52:41.930Z,102653.56
2022-12-17T13:55:16.846Z,102651.94
2022-12-17T13:57:47.436Z,102655.66
2022-12-17T14:00:23.940Z,102664.00
2022-12-17T14:02:51.729Z,102669.22
2022-12-17T14:05:22.473Z,102668.59
2022-12-17T14:07:48.928Z,102661.19
2022-12-17T14:10:17.366Z,102658.31
2022-12-17T14:12:44.119Z,102668.06
2022-12-17T14:15:29.923Z,102662.00
2022-12-17T14:17:58.749Z,102660.28
2022-12-17T14:20:28.608Z,102657.88
2022-12-17T14:23:00.617Z,102664.00
2022-12-17T14:25:39.596Z,102677.00
2022-12-17T14:28:27.519Z,102673.59
2022-12-17T14:31:29.769Z,102672.94
2022-12-17T14:34:13.526Z,102677.13
2022-12-17T14:36:42.977Z,102676.06
2022-12-17T14:39:23.320Z,102671.00
2022-12-17T14:42:08.425Z,102672.31
2022-12-17T14:44:37.869Z,102677.28
2022-12-17T14:47:16.871Z,102675.34
2022-12-17T14:49:55.965Z,102694.25
2022-12-17T14:52:34.585Z,102696.91
2022-12-17T14:55:01.788Z,102698.88
2022-12-17T14:57:28.204Z,102691.56
2022-12-17T14:59:54.665Z,102705.03
2022-12-17T15:02:30.931Z,102701.78
2022-12-17T15:05:01.594Z,102694.13
2022-12-17T15:07:31.492Z,102702.50
2022-12-17T15:09:58.412Z,102704.69
2022-12-17T15:12:25.516Z,102708.31
2022-12-17T15:14:52.017Z,102704.81
2022-12-17T15:17:18.836Z,102697.16
2022-12-17T15:19:45.402Z,102702.28
2022-12-17T15:22:16.890Z,102704.38
2022-12-17T15:24:44.630Z,102706.69
2022-12-17T15:27:16.385Z,102711.47
2022-12-17T15:29:44.188Z,102713.56
2022-12-17T15:32:18.720Z,102724.34
2022-12-17T15:34:45.721Z,102722.75
2022-12-17T15:37:12.780Z,102726.34
2022-12-17T15:39:39.268Z,102722.63
2022-12-17T15:42:24.467Z,102727.75
2022-12-17T15:44:50.904Z,102737.72
2022-12-17T15:47:17.325Z,102736.56
2022-12-17T15:49:44.822Z,102740.38
2022-12-17T15:52:14.939Z,102744.56
2022-12-17T15:54:44.334Z,102745.88
2022-12-17T15:57:16.800Z,102735.38
2022-12-17T15:59:44.941Z,102734.13
2022-12-17T16:02:11.875Z,102740.03
2022-12-17T16:04:38.760Z,102740.72
2022-12-17T16:07:05.706Z,102740.16
2022-12-17T16:09:32.336Z,102756.75
2022-12-17T16:11:58.815Z,102750.22
2022-12-17T16:14:25.368Z,102746.72
2022-12-17T16:16:51.807Z,102756.03
2022-12-17T16:19:18.322Z,102755.34
2022-12-17T16:21:46.964Z,102763.38
2022-12-17T16:24:13.820Z,102756.88
2022-12-17T16:26:40.272Z,102756.41
2022-12-17T16:29:06.747Z,102752.69
2022-12-17T16:31:33.620Z,102755.94
2022-12-17T16:34:00.201Z,102757.56
2022-12-17T16:36:26.651Z,102757.69
2022-12-17T16:38:54.494Z,102754.69
2022-12-17T16:41:22.495Z,102756.75
2022-12-17T16:43:49.320Z,102756.31
2022-12-17T16:46:36.866Z,102761.66
2022-12-17T16:49:08.052Z,102754.22
2022-12-17T16:51:34.539Z,102762.56
2022-12-17T16:54:05.107Z,102764.19
2022-12-17T16:56:36.504Z,102762.03
2022-12-17T16:59:08.145Z,102759.19
2022-12-17T17:01:35.894Z,102766.88
2022-12-17T17:04:04.461Z,102762.84
2022-12-17T17:06:33.819Z,102754.97
2022-12-17T17:09:04.201Z,102758.31
2022-12-17T17:11:31.004Z,102759.16
2022-12-17T17:13:57.986Z,102761.38
2022-12-17T17:16:25.024Z,102770.84
2022-12-17T17:18:52.666Z,102770.38
2022-12-17T17:21:19.082Z,102773.25
2022-12-17T17:24:03.629Z,102772.59
2022-12-17T17:26:32.460Z,102769.59
2022-12-17T17:28:59.523Z,102772.38
2022-12-17T17:31:46.407Z,102778.91
2022-12-17T17:34:14.874Z,102768.66
2022-12-17T17:36:41.903Z,102773.09
2022-12-17T17:39:08.732Z,102764.97
2022-12-17T17:41:35.818Z,102768.91
2022-12-17T17:44:12.880Z,102756.03
2022-12-17T17:46:40.156Z,102768.09
2022-12-17T17:49:07.906Z,102767.03
2022-12-17T17:52:08.556Z,102762.97
2022-12-17T17:54:23.982Z,102775.53
2022-12-17T17:56:50.476Z,102771.00
2022-12-17T17:59:20.565Z,102770.66
2022-12-17T18:01:49.672Z,102772.72
2022-12-17T18:04:21.293Z,102781.19
2022-12-17T18:07:23.264Z,102788.28
2022-12-17T18:09:35.557Z,102790.72
2022-12-17T18:12:23.150Z,102797.78
2022-12-17T18:15:12.590Z,102803.44
2022-12-17T18:17:36.228Z,102797.28
2022-12-17T18:20:02.892Z,102799.06
2022-12-17T18:22:29.332Z,102808.09
2022-12-17T18:24:55.873Z,102807.19
2022-12-17T18:27:22.535Z,102813.28
2022-12-17T18:29:49.022Z,102810.03
2022-12-17T18:32:15.481Z,102805.28
2022-12-17T18:34:41.977Z,102801.81
2022-12-17T18:37:08.562Z,102803.31
2022-12-17T18:39:35.092Z,102797.97
2022-12-17T18:42:20.079Z,102796.94
2022-12-17T18:44:46.511Z,102811.41
2022-12-17T18:47:13.434Z,102796.41
2022-12-17T18:49:40.116Z,102789.41
2022-12-17T18:52:09.400Z,102790.59
2022-12-17T18:54:39.669Z,102810.31
2022-12-17T18:57:06.133Z,102794.97
2022-12-17T18:59:32.667Z,102806.09
2022-12-17T19:01:59.463Z,102805.88
2022-12-17T19:04:27.212Z,102813.38
2022-12-17T19:06:54.150Z,102822.13
2022-12-17T19:09:31.267Z,102818.88
2022-12-17T19:11:58.469Z,102815.09
2022-12-17T19:14:25.765Z,102813.03
2022-12-17T19:16:54.798Z,102808.72
2022-12-17T19:19:22.557Z,102821.22
2022-12-17T19:21:49.630Z,102816.28
2022-12-17T19:24:17.608Z,102817.31
2022-12-17T19:26:45.289Z,102818.72
2022-12-17T19:29:14.247Z,102812.63
2022-12-17T19:31:41.387Z,102824.56
2022-12-17T19:34:11.843Z,102830.06
2022-12-17T19:36:38.868Z,102827.00
2022-12-17T19:39:08.105Z,102829.03
2022-12-17T19:41:35.036Z,102825.91
2022-12-17T19:44:07.119Z,102832.63
2022-12-17T19:46:35.009Z,102829.38
2022-12-17T19:49:02.053Z,102838.66
2022-12-17T19:51:30.495Z,102831.19
2022-12-17T19:53:59.722Z,102835.38
2022-12-17T19:56:31.757Z,102850.63
2022-12-17T19:59:02.031Z,102832.78
2022-12-17T20:01:31.654Z,102845.44
2022-12-17T20:03:58.504Z,102839.28
2022-12-17T20:06:28.153Z,102840.91
2022-12-17T20:08:55.277Z,102851.97
2022-12-17T20:11:34.568Z,102854.63
2022-12-17T20:14:14.667Z,102852.25
2022-12-17T20:16:45.047Z,102846.47
2022-12-17T20:19:15.124Z,102851.97
2022-12-17T20:21:42.295Z,102852.19
2022-12-17T20:24:09.623Z,102857.88
2022-12-17T20:26:36.908Z,102870.53
2022-12-17T20:29:04.674Z,102865.81
2022-12-17T20:31:31.788Z,102876.66
2022-12-17T20:34:03.536Z,102875.47
2022-12-17T20:36:30.601Z,102867.31
2022-12-17T20:38:57.405Z,102867.94
2022-12-17T20:41:27.356Z,102875.47
2022-12-17T20:43:54.596Z,102868.84
2022-12-17T20:46:23.187Z,102868.84
2022-12-17T20:48:49.822Z,102851.69
2022-12-17T20:51:19.846Z,102862.94
2022-12-17T20:53:52.434Z,102859.19
2022-12-17T20:56:26.152Z,102849.69
2022-12-17T20:58:55.130Z,102852.22
2022-12-17T21:01:24.059Z,102841.41
2022-12-17T21:03:52.205Z,102854.72
2022-12-17T21:06:21.747Z,102853.91
2022-12-17T21:08:50.354Z,102848.22
2022-12-17T21:11:19.100Z,102851.00
2022-12-17T21:13:45.639Z,102843.78
2022-12-17T21:16:15.972Z,102844.06
2022-12-17T21:18:42.934Z,102861.66
2022-12-17T21:21:17.132Z,102860.22
2022-12-17T21:23:45.239Z,102870.66
2022-12-17T21:26:14.854Z,102881.09
2022-12-17T21:28:44.998Z,102883.31
2022-12-17T21:31:23.263Z,102881.34
2022-12-17T21:33:51.547Z,102880.31
2022-12-17T21:36:20.247Z,102871.50
2022-12-17T21:38:49.038Z,102859.41
2022-12-17T21:41:22.429Z,102869.88
2022-12-17T21:43:53.940Z,102865.50
2022-12-17T21:46:20.807Z,102877.16
2022-12-17T21:48:47.885Z,102882.72
2022-12-17T21:51:15.114Z,102897.50
2022-12-17T21:53:42.748Z,102903.66
2022-12-17T21:56:17.933Z,102916.38
2022-12-17T21:58:46.289Z,102910.03
2022-12-17T22:01:18.717Z,102913.84
2022-12-17T22:03:46.749Z,102911.59
2022-12-17T22:06:18.417Z,102912.22
2022-12-17T22:08:46.180Z,102927.84
2022-12-17T22:11:19.481Z,102923.13
2022-12-17T22:14:07.317Z,102922.06
2022-12-17T22:16:42.863Z,102924.34
2022-12-17T22:19:12.988Z,102914.56
2022-12-17T22:21:42.207Z,102913.94
2022-12-17T22:24:13.997Z,102912.44
2022-12-17T22:26:40.703Z,102929.03
2022-12-17T22:29:07.241Z,102938.25
2022-12-17T22:31:52.023Z,102940.94
2022-12-17T22:35:15.848Z,102930.75
2022-12-17T22:40:15.966Z,102932.16
2022-12-17T22:41:35.927Z,102931.16
2022-12-17T22:44:37.200Z,102930.91
2022-12-17T22:45:43.676Z,102914.13
2022-12-17T22:48:11.354Z,102917.59
2022-12-17T22:50:44.731Z,102909.41
2022-12-17T22:53:17.699Z,102919.41
2022-12-17T22:55:44.870Z,102910.81
2022-12-17T22:58:11.624Z,102899.56
2022-12-17T23:00:38.164Z,102903.41
2022-12-17T23:03:05.170Z,102906.94
2022-12-17T23:05:32.157Z,102913.06
2022-12-17T23:07:59.020Z,102904.09
2022-12-17T23:10:26.654Z,102911.25
2022-12-17T23:12:54.925Z,102910.06
2022-12-17T23:15:36.554Z,102905.41
2022-12-17T23:18:05.661Z,102918.94
2022-12-17T23:20:34.251Z,102916.28
2022-12-17T23:23:01.248Z,102915.84
2022-12-17T23:25:29.154Z,102918.75
2022-12-17T23:27:55.821Z,102907.66
2022-12-17T23:30:22.308Z,102914.44
2022-12-17T23:32:48.771Z,102915.88
2022-12-17T23:35:15.281Z,102920.00
2022-12-17T23:37:42.031Z,102922.00
2022-12-17T23:40:10.417Z,102915.72
2022-12-17T23:42:37.386Z,102916.88
2022-12-17T23:45:04.644Z,102918.13
2022-12-17T23:47:31.408Z,102919.69
2022-12-17T23:49:57.849Z,102921.97
2022-12-17T23:52:24.723Z,102905.00
2022-12-17T23:54:51.156Z,102900.13
2022-12-17T23:57:17.628Z,102904.63
2022-12-17T23:59:44.070Z,102896.91
